Indiara, Brazil
Current Conditions -  °F | °C
As of 12:00 PM on Thursday 18 Dec 2014 (Local Time) from SBGO Reporting Station
Rain Showers Rain Showers  
Wind Chill: 84°   Ceiling: Unl
Heat Index: 86°   Visibility: 6mi
Dew Point: 64°   Wind: 6mph
Humidity: 51%   Direction: 360°N
Pressure: 29.94"   Gusts: NA
Location:  17.14°S, 49.99°W
Report Text: SBGO 181400Z 36005KT 9999 VCSH FEW035 FEW040TCU 29/18 Q1014
Loading
Personal Weather Stations






























Interactive Weather Map New forecast layout! Learn more

10-Day Weather Forecast

Advertisements
Track Severe Weather on mobile